Time;durP1;ratioP1;P1;durP2;ratioP2;P2;SDS_P1;SDS_P2;PMS_P1;PMS_P2;Temp;Humidity;BMP_temperature;BMP_pressure;BME280_temperature;BME280_humidity;BME280_pressure;Samples;Min_cycle;Max_cycle;Signal;HPM_P1;HPM_P2
2022/01/21 00:01:04;;;;;;;1.52;1.35;;;-0.30;99.90;;;;;;5043976;28;20211;-79
2022/01/21 00:03:31;;;;;;;8.23;3.17;;;-0.50;1.00;;;;;;5043191;28;20254;-79
2022/01/21 00:05:58;;;;;;;5.68;1.83;;;-0.30;1.00;;;;;;5044263;28;20215;-80
2022/01/21 00:08:24;;;;;;;2.42;1.83;;;-0.40;99.90;;;;;;5043859;28;20220;-78
2022/01/21 00:10:51;;;;;;;1.40;1.30;;;-0.30;1.00;;;;;;5043161;28;20208;-78
2022/01/21 00:13:23;;;;;;;2.08;1.70;;;-0.30;99.90;;;;;;5040384;28;20322;-77
2022/01/21 00:15:50;;;;;;;1.92;1.80;;;-0.30;1.00;;;;;;5041369;28;20192;-77
2022/01/21 00:18:19;;;;;;;3.58;1.63;;;-0.50;29.00;;;;;;5037381;28;20635;-78
2022/01/21 00:31:42;;;;;;;3.30;2.40;;;-0.40;99.90;;;;;;5033748;28;20196;-80
2022/01/21 00:34:10;;;;;;;3.53;2.20;;;-0.30;99.90;;;;;;5032348;28;20204;-81
2022/01/21 00:36:37;;;;;;;4.65;1.75;;;-0.30;1.00;;;;;;5027669;28;20214;-81
2022/01/21 00:39:04;;;;;;;7.38;2.20;;;-0.40;1.00;;;;;;5028353;28;20275;-80
2022/01/21 00:41:35;;;;;;;3.42;2.00;;;-0.40;1.00;;;;;;5030634;28;20200;-78
2022/01/21 00:44:02;;;;;;;2.05;1.63;;;-0.40;1.00;;;;;;5037569;28;20196;-79
2022/01/21 00:46:28;;;;;;;3.90;2.28;;;-0.40;1.00;;;;;;5037966;28;20235;-79
2022/01/21 00:48:55;;;;;;;5.15;1.77;;;-0.40;99.90;;;;;;5038152;28;20228;-80
2022/01/21 00:51:23;;;;;;;4.70;1.88;;;-0.40;1.00;;;;;;5038313;28;20211;-80
2022/01/21 00:53:50;;;;;;;5.20;2.00;;;-0.40;1.00;;;;;;5037222;28;20270;-79
2022/01/21 00:56:16;;;;;;;2.53;1.80;;;-0.30;1.00;;;;;;5036934;28;20215;-79
2022/01/21 00:58:43;;;;;;;4.07;3.00;;;-0.30;99.90;;;;;;5037854;28;20208;-78
2022/01/21 01:01:09;;;;;;;8.02;2.05;;;-0.30;99.90;;;;;;5029899;28;20600;-79
2022/01/21 01:03:36;;;;;;;4.28;1.92;;;-0.30;1.00;;;;;;5022852;28;20200;-81
2022/01/21 01:06:03;;;;;;;3.92;2.00;;;-0.40;99.90;;;;;;5022310;28;20204;-82
2022/01/21 01:08:31;;;;;;;2.45;1.52;;;-0.40;99.90;;;;;;5021321;28;20225;-82
2022/01/21 01:11:17;;;;;;;3.47;2.17;;;-0.50;99.90;;;;;;5020614;28;20211;-80
2022/01/21 01:21:57;;;;;;;3.40;2.33;;;-0.50;1.00;;;;;;5020256;28;20188;-81
2022/01/21 01:29:54;;;;;;;7.55;1.90;;;-0.50;99.90;;;;;;5029326;28;20216;-81
2022/01/21 01:32:20;;;;;;;3.22;1.95;;;-0.50;99.90;;;;;;5028101;28;20288;-81
2022/01/21 01:34:47;;;;;;;4.40;2.10;;;-0.40;99.90;;;;;;5030004;28;20207;-81
2022/01/21 01:37:27;;;;;;;12.73;2.53;;;-0.50;99.90;;;;;;5027739;28;20212;-81
2022/01/21 01:40:11;;;;;;;2.72;1.10;;;-0.60;1.00;;;;;;5027665;28;20194;-81
2022/01/21 01:51:05;;;;;;;3.30;2.00;;;-0.50;99.90;;;;;;5032373;28;20189;-80
2022/01/21 01:53:36;;;;;;;2.78;2.00;;;-0.50;99.90;;;;;;5031613;28;20208;-82
2022/01/21 01:56:07;;;;;;;3.60;1.70;;;-0.40;1.00;;;;;;5022833;28;20190;-81
2022/01/21 01:58:37;;;;;;;3.60;2.72;;;-0.50;99.90;;;;;;5021719;28;20228;-80
2022/01/21 02:01:05;;;;;;;2.35;1.98;;;-0.70;99.90;;;;;;5030284;28;20255;-80
2022/01/21 02:03:32;;;;;;;2.33;2.13;;;-0.50;99.90;;;;;;5028960;28;20262;-81
2022/01/21 02:05:59;;;;;;;2.00;1.90;;;-0.50;1.00;;;;;;5021438;28;20235;-82
2022/01/21 02:08:28;;;;;;;3.50;2.00;;;-0.50;1.00;;;;;;5019675;28;20216;-82
2022/01/21 02:10:55;;;;;;;4.57;1.52;;;-0.50;1.00;;;;;;5019288;28;20266;-80
2022/01/21 02:13:26;;;;;;;3.20;1.55;;;-0.50;1.00;;;;;;5019158;28;20212;-81
2022/01/21 02:16:02;;;;;;;4.18;2.00;;;-0.50;99.90;;;;;;5019662;28;20192;-80
2022/01/21 02:21:38;;;;;;;5.35;2.10;;;-0.50;1.00;;;;;;5017765;28;20227;-81
2022/01/21 02:24:08;;;;;;;7.50;2.33;;;-0.50;99.90;;;;;;5021827;28;20188;-79
2022/01/21 02:26:36;;;;;;;3.40;2.10;;;-0.50;99.90;;;;;;5031107;28;20196;-76
2022/01/21 02:29:04;;;;;;;6.18;2.35;;;-0.50;1.00;;;;;;5031071;28;20232;-78
2022/01/21 02:31:31;;;;;;;5.07;1.77;;;-0.50;99.90;;;;;;5029424;28;20236;-80
2022/01/21 02:33:58;;;;;;;3.00;1.50;;;-0.60;1.00;;;;;;5024461;28;20200;-80
2022/01/21 02:36:26;;;;;;;3.45;1.70;;;-0.60;14.80;;;;;;5023300;28;20204;-80
2022/01/21 02:38:53;;;;;;;3.30;1.52;;;-0.50;1.00;;;;;;5026280;28;20255;-80
2022/01/21 02:41:20;;;;;;;3.78;1.48;;;-0.60;1.00;;;;;;5022362;28;20208;-79
2022/01/21 02:43:47;;;;;;;1.98;1.67;;;-0.60;99.90;;;;;;5024590;28;20291;-82
2022/01/21 02:46:16;;;;;;;2.08;1.45;;;-0.60;1.00;;;;;;5024634;28;20235;-79
2022/01/21 02:48:43;;;;;;;1.42;1.00;;;-0.70;99.90;;;;;;5026254;28;20255;-79
2022/01/21 02:51:12;;;;;;;6.65;1.80;;;-0.60;1.00;;;;;;5022032;28;20262;-81
2022/01/21 02:56:22;;;;;;;5.57;1.27;;;-0.70;99.90;;;;;;5018762;28;20204;-80
2022/01/21 02:58:49;;;;;;;4.43;1.60;;;-0.60;1.00;;;;;;5019727;28;20594;-81
2022/01/21 03:01:18;;;;;;;1.90;1.75;;;-0.70;99.90;;;;;;5024708;28;20588;-78
2022/01/21 03:03:46;;;;;;;6.50;2.35;;;-0.60;99.90;;;;;;5033245;28;20231;-79
2022/01/21 03:06:14;;;;;;;6.38;2.20;;;-0.70;99.90;;;;;;5033125;28;20228;-81
2022/01/21 03:08:43;;;;;;;7.72;1.80;;;-0.70;1.00;;;;;;5026004;28;20228;-80
2022/01/21 03:11:11;;;;;;;2.75;1.42;;;-0.70;1.00;;;;;;5023857;28;20204;-82
2022/01/21 03:13:38;;;;;;;4.03;1.50;;;-0.70;1.00;;;;;;5024797;28;20235;-81
2022/01/21 03:16:05;;;;;;;1.55;1.20;;;-0.70;1.00;;;;;;5022599;28;20208;-81
2022/01/21 03:18:32;;;;;;;2.95;1.90;;;-0.80;1.00;;;;;;5026906;28;20421;-82
2022/01/21 03:20:59;;;;;;;2.25;1.70;;;-0.80;99.90;;;;;;5028125;28;20279;-80
2022/01/21 03:23:27;;;;;;;7.07;2.08;;;-0.80;99.90;;;;;;5031088;28;20204;-80
2022/01/21 03:25:55;;;;;;;3.35;1.42;;;-0.80;99.90;;;;;;5034154;28;20208;-79
2022/01/21 03:28:22;;;;;;;3.58;1.80;;;-0.80;51.70;;;;;;5029835;28;20246;-81
2022/01/21 03:30:50;;;;;;;2.25;1.92;;;-0.90;99.90;;;;;;5032163;28;20590;-79
2022/01/21 03:33:17;;;;;;;3.22;1.85;;;-0.90;1.00;;;;;;5036798;28;20212;-79
2022/01/21 03:35:44;;;;;;;4.13;1.20;;;-0.80;99.90;;;;;;5036141;28;20192;-79
2022/01/21 03:38:10;;;;;;;7.47;1.65;;;-0.80;1.00;;;;;;5038721;28;20297;-80
2022/01/21 03:40:37;;;;;;;7.32;2.30;;;-0.80;99.90;;;;;;5039377;28;20277;-80
2022/01/21 03:43:05;;;;;;;8.98;3.00;;;-0.90;1.00;;;;;;5038055;28;20204;-80
2022/01/21 03:45:32;;;;;;;2.33;1.52;;;-0.80;99.90;;;;;;5040108;28;20205;-79
2022/01/21 03:47:59;;;;;;;4.25;2.10;;;-0.90;99.90;;;;;;5040369;28;20220;-81
2022/01/21 03:50:32;;;;;;;1.73;1.35;;;-0.90;99.90;;;;;;5040421;28;20243;-79
2022/01/21 03:52:59;;;;;;;3.97;1.38;;;-0.90;99.90;;;;;;5039649;28;20184;-80
2022/01/21 03:55:26;;;;;;;8.43;2.08;;;-0.90;99.90;;;;;;5038666;28;20235;-82
2022/01/21 03:57:53;;;;;;;5.65;1.58;;;-1.00;99.90;;;;;;5034203;28;20232;-79
2022/01/21 04:00:24;;;;;;;5.15;1.58;;;-1.00;1.00;;;;;;5033539;28;20209;-80
2022/01/21 04:02:51;;;;;;;2.65;1.48;;;-1.00;1.00;;;;;;5032445;28;20189;-81
2022/01/21 04:05:18;;;;;;;2.90;1.40;;;-1.00;1.00;;;;;;5030018;28;20205;-78
2022/01/21 04:07:46;;;;;;;2.00;1.30;;;-1.20;1.00;;;;;;5033349;28;20224;-80
2022/01/21 04:10:13;;;;;;;3.33;1.67;;;-1.20;99.90;;;;;;5029422;28;20248;-81
2022/01/21 04:12:39;;;;;;;2.90;1.70;;;-1.10;1.00;;;;;;5032390;28;20215;-78
2022/01/21 04:15:07;;;;;;;2.67;1.25;;;-1.20;1.00;;;;;;5029938;28;20205;-80
2022/01/21 04:17:36;;;;;;;4.57;1.50;;;-1.20;99.90;;;;;;5029572;28;20224;-80
2022/01/21 04:20:03;;;;;;;2.95;1.73;;;-1.20;1.00;;;;;;5029475;28;20232;-79
2022/01/21 04:22:30;;;;;;;3.10;2.65;;;-1.20;1.00;;;;;;5028469;28;20208;-78
2022/01/21 04:24:56;;;;;;;2.75;1.33;;;-1.20;99.90;;;;;;5021459;28;20235;-81
2022/01/21 04:27:23;;;;;;;1.83;1.30;;;-1.50;1.00;;;;;;5021763;28;20212;-80
2022/01/21 04:29:49;;;;;;;2.30;1.52;;;-1.30;99.90;;;;;;5021832;28;20240;-81
2022/01/21 04:32:16;;;;;;;5.15;3.30;;;-1.30;1.00;;;;;;5024821;28;20204;-79
2022/01/21 04:34:44;;;;;;;3.65;1.70;;;-1.40;99.90;;;;;;5024181;28;20744;-80
2022/01/21 04:37:12;;;;;;;2.40;1.83;;;-1.70;93.40;;;;;;5023508;28;20208;-80
2022/01/21 04:39:45;;;;;;;2.85;1.52;;;-1.40;54.00;;;;;;5025829;28;20207;-80
2022/01/21 04:47:40;;;;;;;3.00;2.10;;;-1.40;1.00;;;;;;5022980;28;20335;-81
2022/01/21 04:50:13;;;;;;;11.93;3.22;;;-1.40;1.00;;;;;;5023506;28;20594;-81
2022/01/21 04:52:39;;;;;;;10.07;2.08;;;-1.50;1.00;;;;;;5023355;28;20235;-81
2022/01/21 04:55:08;;;;;;;3.88;1.98;;;-1.50;1.00;;;;;;5024266;28;20231;-81
2022/01/21 04:57:35;;;;;;;2.47;1.40;;;-1.50;1.00;;;;;;5024584;28;20220;-81
2022/01/21 05:00:01;;;;;;;2.25;1.58;;;-1.50;99.90;;;;;;5023372;28;20204;-80
2022/01/21 05:02:29;;;;;;;1.63;1.50;;;-1.50;99.90;;;;;;5024421;28;20204;-81
2022/01/21 05:04:55;;;;;;;7.35;2.00;;;-1.50;99.90;;;;;;5023051;28;20557;-81
2022/01/21 05:07:26;;;;;;;4.75;1.55;;;-1.50;99.90;;;;;;5023180;28;20555;-81
2022/01/21 05:09:52;;;;;;;2.75;1.73;;;-1.50;99.90;;;;;;5029616;28;20225;-80
2022/01/21 05:12:21;;;;;;;6.82;1.52;;;-1.60;1.00;;;;;;5034079;28;20232;-79
2022/01/21 05:15:03;;;;;;;5.85;1.83;;;-1.60;1.00;;;;;;5034049;28;20208;-80
2022/01/21 05:17:30;;;;;;;5.97;2.03;;;-1.60;1.00;;;;;;5034961;28;20232;-79
2022/01/21 05:19:57;;;;;;;1.63;1.40;;;-1.60;99.90;;;;;;5034762;28;20184;-79
2022/01/21 05:22:25;;;;;;;3.17;1.52;;;-1.70;1.00;;;;;;5034778;28;20205;-78
2022/01/21 05:24:51;;;;;;;7.28;1.92;;;-1.70;99.90;;;;;;5034249;28;20447;-79
2022/01/21 05:27:18;;;;;;;4.63;1.40;;;-2.00;99.90;;;;;;5033384;28;20345;-78
2022/01/21 05:29:45;;;;;;;9.55;1.75;;;-1.70;59.90;;;;;;5022284;28;20208;-79
2022/01/21 05:32:12;;;;;;;4.63;1.73;;;-1.70;1.00;;;;;;5019926;28;20262;-81
2022/01/21 05:34:39;;;;;;;6.57;2.30;;;-1.70;1.00;;;;;;5023295;28;20211;-81
2022/01/21 05:37:06;;;;;;;3.28;1.70;;;-2.50;1.00;;;;;;5026729;28;20228;-81
2022/01/21 05:39:34;;;;;;;2.90;1.75;;;-1.80;1.00;;;;;;5026404;28;20259;-80
2022/01/21 05:42:03;;;;;;;3.55;1.50;;;-1.80;99.90;;;;;;5032376;28;20208;-80
2022/01/21 05:47:14;;;;;;;4.50;2.50;;;-1.80;99.90;;;;;;5029728;28;20223;-80
2022/01/21 05:49:41;;;;;;;5.30;2.20;;;-1.90;99.90;;;;;;5031777;28;20204;-78
2022/01/21 05:52:15;;;;;;;3.70;1.80;;;-1.90;1.00;;;;;;5034898;28;20435;-79
2022/01/21 05:54:44;;;;;;;6.25;2.13;;;-1.80;99.90;;;;;;5034586;28;20216;-78
2022/01/21 05:57:13;;;;;;;1.90;1.35;;;-1.80;40.60;;;;;;5034867;28;20205;-80
2022/01/21 05:59:39;;;;;;;2.67;2.00;;;-1.70;1.00;;;;;;5035043;28;20212;-80
2022/01/21 06:02:07;;;;;;;5.38;1.92;;;-1.80;1.00;;;;;;5031672;28;20205;-79
2022/01/21 06:04:34;;;;;;;9.88;1.80;;;-1.80;19.50;;;;;;5031752;28;20443;-78
2022/01/21 06:07:01;;;;;;;5.32;2.15;;;-1.90;1.00;;;;;;5028675;28;20212;-82
2022/01/21 06:09:28;;;;;;;7.22;2.25;;;-1.90;99.90;;;;;;5024571;28;20718;-80
2022/01/21 06:11:57;;;;;;;3.28;1.40;;;-2.00;1.00;;;;;;5022218;28;20225;-82
2022/01/21 06:14:24;;;;;;;6.95;2.03;;;-1.90;75.50;;;;;;5022915;28;20216;-81
2022/01/21 06:16:51;;;;;;;8.73;1.80;;;-1.90;1.00;;;;;;5019283;28;20232;-80
2022/01/21 06:19:18;;;;;;;3.10;2.08;;;-1.90;1.00;;;;;;5018850;28;20246;-81
2022/01/21 06:21:44;;;;;;;10.35;1.95;;;-1.90;1.00;;;;;;5019766;28;20275;-82
2022/01/21 06:24:11;;;;;;;7.18;2.53;;;-1.90;1.00;;;;;;5019631;28;20199;-82
2022/01/21 06:26:38;;;;;;;2.10;1.90;;;-1.90;1.00;;;;;;5018654;28;20204;-81
2022/01/21 06:29:06;;;;;;;2.35;1.45;;;-1.90;1.00;;;;;;5038355;22;20239;-77
2022/01/21 06:31:33;;;;;;;14.23;5.00;;;-1.90;99.90;;;;;;5013602;28;20224;-77
2022/01/21 06:33:59;;;;;;;4.38;2.10;;;-1.90;1.00;;;;;;5014676;28;20236;-77
2022/01/21 06:36:26;;;;;;;10.25;2.85;;;-1.90;1.00;;;;;;5014133;28;20289;-76
2022/01/21 06:38:54;;;;;;;3.92;2.20;;;-1.90;1.00;;;;;;5013456;28;20224;-78
2022/01/21 06:41:20;;;;;;;4.53;2.60;;;-1.90;99.90;;;;;;5013430;28;20729;-76
2022/01/21 06:43:47;;;;;;;6.05;2.35;;;-1.90;1.00;;;;;;5013618;28;20231;-76
2022/01/21 06:46:15;;;;;;;3.90;1.90;;;-1.90;1.00;;;;;;5020371;28;20727;-76
2022/01/21 06:48:42;;;;;;;3.50;2.65;;;;;;;;;;5019823;28;20227;-77
2022/01/21 06:51:08;;;;;;;5.70;2.10;;;-1.90;70.70;;;;;;5021260;28;20220;-77
2022/01/21 06:53:35;;;;;;;7.60;1.85;;;-1.90;1.00;;;;;;5021082;28;20303;-76
2022/01/21 06:56:02;;;;;;;4.68;1.80;;;-1.90;1.00;;;;;;5023236;28;20204;-77
2022/01/21 06:58:28;;;;;;;5.07;2.90;;;-1.90;1.00;;;;;;5025055;28;20235;-77
2022/01/21 07:00:55;;;;;;;3.47;2.00;;;-1.70;1.00;;;;;;5022825;28;20675;-77
2022/01/21 07:03:26;;;;;;;2.45;1.45;;;-1.80;99.90;;;;;;5017505;28;20208;-77
2022/01/21 07:05:52;;;;;;;1.80;1.70;;;-1.70;99.90;;;;;;5014507;28;20242;-77
2022/01/21 07:08:20;;;;;;;8.05;2.03;;;-1.70;99.90;;;;;;5014079;28;20248;-78
2022/01/21 07:10:46;;;;;;;8.82;2.42;;;-1.70;99.90;;;;;;5013858;28;20224;-77
2022/01/21 07:13:13;;;;;;;4.43;2.03;;;-1.70;1.00;;;;;;5013681;28;20242;-77
2022/01/21 07:15:40;;;;;;;2.10;1.40;;;-1.80;99.90;;;;;;5013311;28;20239;-77
2022/01/21 07:18:07;;;;;;;3.15;2.05;;;-1.80;1.00;;;;;;5013970;28;20248;-77
2022/01/21 07:20:34;;;;;;;2.15;1.95;;;-1.80;99.90;;;;;;5015044;28;20299;-77
2022/01/21 07:23:01;;;;;;;8.23;2.95;;;-1.70;1.00;;;;;;5015159;28;20271;-77
2022/01/21 07:25:28;;;;;;;4.60;2.35;;;-1.80;99.90;;;;;;5017818;28;20255;-77
2022/01/21 07:27:55;;;;;;;6.68;1.85;;;-1.70;1.00;;;;;;5014026;28;20264;-77
2022/01/21 07:30:22;;;;;;;3.67;2.20;;;-1.70;99.90;;;;;;5015408;28;20217;-78
2022/01/21 07:32:48;;;;;;;8.27;2.85;;;-1.80;89.40;;;;;;5014995;28;20262;-77
2022/01/21 07:35:16;;;;;;;2.45;2.20;;;-0.90;1.00;;;;;;5014000;28;20240;-77
2022/01/21 07:37:44;;;;;;;14.15;3.47;;;-1.70;1.00;;;;;;5013831;28;20211;-77
2022/01/21 07:40:12;;;;;;;7.40;2.47;;;-1.80;99.90;;;;;;5013022;28;20316;-77
2022/01/21 07:42:39;;;;;;;7.85;3.15;;;-1.80;99.90;;;;;;5013080;28;20278;-77
2022/01/21 07:45:06;;;;;;;5.30;2.03;;;-1.70;1.00;;;;;;5012821;28;20638;-77
2022/01/21 07:47:33;;;;;;;2.80;2.50;;;-1.70;89.70;;;;;;5012692;28;20254;-77
2022/01/21 07:49:59;;;;;;;5.40;2.33;;;-1.70;99.90;;;;;;5013079;28;20212;-78
2022/01/21 07:52:26;;;;;;;2.75;2.40;;;-1.60;99.90;;;;;;5012924;28;20235;-76
2022/01/21 07:54:54;;;;;;;6.40;2.83;;;-1.60;77.40;;;;;;5017008;28;20204;-77
2022/01/21 07:57:20;;;;;;;6.68;2.47;;;-1.50;99.90;;;;;;5012982;28;20262;-77
2022/01/21 07:59:47;;;;;;;4.90;2.10;;;-1.40;1.00;;;;;;5013105;28;20267;-78
2022/01/21 08:02:13;;;;;;;5.43;2.00;;;-1.40;1.00;;;;;;5013300;28;20612;-77
2022/01/21 08:04:40;;;;;;;7.95;1.92;;;-1.40;99.90;;;;;;5022458;28;20227;-78
2022/01/21 08:07:09;;;;;;;5.15;2.75;;;-1.40;99.90;;;;;;5017309;28;20236;-77
2022/01/21 08:09:36;;;;;;;4.88;2.03;;;-1.40;99.90;;;;;;5016821;28;20682;-77
2022/01/21 08:12:04;;;;;;;2.47;2.08;;;-1.30;99.90;;;;;;5016511;28;20307;-78
2022/01/21 08:14:31;;;;;;;8.82;2.50;;;-1.30;1.00;;;;;;5019333;28;20208;-79
2022/01/21 08:16:59;;;;;;;3.92;2.20;;;-1.40;1.00;;;;;;5020235;28;20216;-80
2022/01/21 08:19:25;;;;;;;8.45;2.20;;;-1.30;1.00;;;;;;5020554;28;20275;-80
2022/01/21 08:21:52;;;;;;;2.42;2.22;;;-1.30;1.00;;;;;;5019474;28;20205;-80
2022/01/21 08:24:20;;;;;;;4.80;2.22;;;-1.20;1.00;;;;;;5016542;28;20208;-77
2022/01/21 08:26:47;;;;;;;47.38;3.00;;;-1.20;1.00;;;;;;5017662;28;20638;-79
2022/01/21 08:29:14;;;;;;;3.88;1.52;;;-1.20;1.00;;;;;;5018887;28;20262;-78
2022/01/21 08:31:41;;;;;;;2.10;1.90;;;-1.10;99.90;;;;;;5019917;28;20282;-79
2022/01/21 08:34:08;;;;;;;7.15;2.70;;;-1.20;1.00;;;;;;5016775;28;20236;-79
2022/01/21 08:36:34;;;;;;;11.73;2.88;;;-1.10;1.00;;;;;;5019848;28;20200;-80
2022/01/21 08:39:01;;;;;;;3.20;2.47;;;-1.00;99.90;;;;;;5020528;28;20607;-80
2022/01/21 08:41:28;;;;;;;3.83;2.97;;;-1.00;99.90;;;;;;5018578;28;20232;-79
2022/01/21 08:43:55;;;;;;;7.80;1.90;;;-0.80;1.00;;;;;;5018647;28;20695;-79
2022/01/21 08:46:23;;;;;;;2.58;2.10;;;-0.90;99.90;;;;;;5019336;28;20678;-80
2022/01/21 08:48:50;;;;;;;7.00;2.47;;;-1.00;1.00;;;;;;5020218;28;20663;-79
2022/01/21 08:51:23;;;;;;;5.57;1.88;;;-0.90;99.90;;;;;;5022075;28;20216;-79
2022/01/21 08:53:50;;;;;;;8.65;2.85;;;-0.90;99.90;;;;;;5019209;28;20192;-80
2022/01/21 08:56:18;;;;;;;13.77;3.88;;;-0.80;99.90;;;;;;5030620;28;20211;-78
2022/01/21 08:58:46;;;;;;;8.50;3.40;;;-0.80;99.90;;;;;;5024209;28;20225;-77
2022/01/21 09:01:14;;;;;;;8.60;2.65;;;-0.80;99.90;;;;;;5021107;28;20204;-78
2022/01/21 09:03:43;;;;;;;1.92;1.70;;;-0.80;99.90;;;;;;5021800;28;20246;-77
2022/01/21 09:06:11;;;;;;;15.20;2.72;;;-0.90;1.00;;;;;;5022256;28;20205;-77
2022/01/21 09:08:40;;;;;;;5.05;2.53;;;-0.70;1.00;;;;;;5016656;28;20224;-77
2022/01/21 09:11:07;;;;;;;10.98;3.15;;;-0.80;1.00;;;;;;5017935;28;20232;-77
2022/01/21 09:13:39;;;;;;;8.60;2.90;;;-0.70;99.90;;;;;;5016092;28;20213;-77
2022/01/21 09:16:07;;;;;;;10.35;2.88;;;-0.60;99.90;;;;;;5018546;28;20261;-78
2022/01/21 09:18:46;;;;;;;8.55;3.42;;;-0.60;99.90;;;;;;5017730;28;20224;-78
2022/01/21 09:21:15;;;;;;;9.50;3.30;;;-0.50;1.00;;;;;;5019113;28;20235;-78
2022/01/21 09:23:42;;;;;;;2.13;1.90;;;-0.40;1.00;;;;;;5019259;28;20236;-77
2022/01/21 09:26:09;;;;;;;3.65;2.80;;;-0.40;1.00;;;;;;5020707;28;20516;-76
2022/01/21 09:28:36;;;;;;;5.50;2.72;;;-0.10;1.00;;;;;;5021916;28;20236;-76
2022/01/21 09:31:03;;;;;;;7.00;2.75;;;-0.30;99.90;;;;;;5019460;28;20590;-78
2022/01/21 09:33:29;;;;;;;6.15;2.83;;;-0.30;99.90;;;;;;5018447;28;20214;-77
2022/01/21 09:35:56;;;;;;;6.57;2.97;;;-0.30;99.90;;;;;;5023345;28;20231;-78
2022/01/21 09:38:26;;;;;;;6.18;3.00;;;-0.30;99.90;;;;;;5025247;28;20224;-80
2022/01/21 09:40:53;;;;;;;6.65;2.38;;;-0.20;99.90;;;;;;5033146;28;20213;-81
2022/01/21 09:43:21;;;;;;;5.88;2.30;;;-0.20;34.80;;;;;;5021578;28;20660;-82
2022/01/21 09:45:51;;;;;;;7.63;3.25;;;-0.20;1.00;;;;;;5020224;28;20584;-81
2022/01/21 09:48:22;;;;;;;3.83;1.90;;;-0.10;99.90;;;;;;5027928;28;20275;-80
2022/01/21 09:50:51;;;;;;;8.75;3.08;;;0.00;1.00;;;;;;5022917;28;20715;-77
2022/01/21 09:53:20;;;;;;;10.25;3.58;;;0.00;99.90;;;;;;5022095;28;20208;-78
2022/01/21 09:55:48;;;;;;;6.47;3.38;;;0.10;99.90;;;;;;5028055;28;20363;-78
2022/01/21 09:58:15;;;;;;;8.57;2.58;;;0.10;99.90;;;;;;5033366;28;20219;-81
2022/01/21 10:00:42;;;;;;;7.93;3.33;;;0.20;99.90;;;;;;5035460;28;20223;-79
2022/01/21 10:03:10;;;;;;;5.32;2.35;;;0.50;99.90;;;;;;5023025;28;20211;-79
2022/01/21 10:05:37;;;;;;;9.50;3.97;;;0.30;99.90;;;;;;5016961;28;20238;-79
2022/01/21 10:08:07;;;;;;;7.53;3.90;;;0.30;99.90;;;;;;5016157;28;20224;-79
2022/01/21 10:10:34;;;;;;;5.30;2.78;;;0.30;99.90;;;;;;5016739;28;20189;-79
2022/01/21 10:13:03;;;;;;;10.75;3.30;;;0.30;1.00;;;;;;5024531;28;20648;-78
2022/01/21 10:15:30;;;;;;;6.18;3.80;;;0.50;1.00;;;;;;5022882;28;20212;-78
2022/01/21 10:18:02;;;;;;;8.15;2.78;;;0.50;1.00;;;;;;5026206;28;20281;-77
2022/01/21 10:20:29;;;;;;;3.67;2.15;;;0.50;1.00;;;;;;5021187;28;20278;-78
2022/01/21 10:23:00;;;;;;;9.38;2.50;;;0.50;1.00;;;;;;5019350;28;20671;-79
2022/01/21 10:25:28;;;;;;;7.60;3.22;;;0.40;1.00;;;;;;5023472;28;20231;-78
2022/01/21 10:28:10;;;;;;;4.15;1.90;;;0.40;99.90;;;;;;5025593;28;20239;-78
2022/01/21 10:30:37;;;;;;;10.82;3.17;;;0.50;11.70;;;;;;5018090;28;20212;-80
2022/01/21 10:33:18;;;;;;;9.10;2.80;;;0.50;1.00;;;;;;5015913;28;20258;-78
2022/01/21 10:35:47;;;;;;;5.97;2.67;;;0.60;1.00;;;;;;5016675;28;20367;-78
2022/01/21 10:38:15;;;;;;;6.85;2.75;;;0.70;1.00;;;;;;5016119;28;20229;-78
2022/01/21 10:40:42;;;;;;;12.18;3.10;;;0.70;99.90;;;;;;5015740;28;20560;-78
2022/01/21 10:43:16;;;;;;;4.72;2.42;;;0.80;99.90;;;;;;5017933;28;20204;-79
2022/01/21 10:45:53;;;;;;;9.27;3.78;;;0.30;1.00;;;;;;5021256;28;20193;-78
2022/01/21 10:48:20;;;;;;;18.10;3.28;;;0.80;1.00;;;;;;5025236;28;20247;-78
2022/01/21 10:50:46;;;;;;;3.47;2.40;;;0.90;1.00;;;;;;5026997;28;20204;-78
2022/01/21 10:53:34;;;;;;;2.70;2.20;;;0.90;1.00;;;;;;5027102;28;20224;-77
2022/01/21 10:56:11;;;;;;;6.70;2.58;;;0.90;1.00;;;;;;5023322;28;20264;-77
2022/01/21 10:58:44;;;;;;;9.50;2.10;;;0.90;46.90;;;;;;5025956;28;20311;-77
2022/01/21 11:01:16;;;;;;;10.48;2.35;;;1.00;99.90;;;;;;5019267;28;20235;-78
2022/01/21 11:04:01;;;;;;;2.47;2.00;;;1.00;99.90;;;;;;5014898;28;20280;-78
2022/01/21 11:06:35;;;;;;;10.77;5.03;;;1.10;27.00;;;;;;5014410;28;20195;-78
2022/01/21 11:09:17;;;;;;;9.30;2.97;;;1.10;1.00;;;;;;5015697;28;20223;-78
2022/01/21 11:11:44;;;;;;;3.38;2.72;;;1.20;99.90;;;;;;5018347;28;20254;-81
2022/01/21 11:14:14;;;;;;;6.05;2.53;;;1.20;1.00;;;;;;5021637;28;20231;-80
2022/01/21 11:16:44;;;;;;;7.75;2.17;;;1.20;1.00;;;;;;5020407;28;20208;-80
2022/01/21 11:19:12;;;;;;;4.93;2.60;;;1.20;1.00;;;;;;5018971;28;20224;-80
2022/01/21 11:21:51;;;;;;;7.45;2.40;;;1.30;9.70;;;;;;5024795;28;20193;-79
2022/01/21 11:27:18;;;;;;;4.88;2.35;;;1.40;28.00;;;;;;5025693;28;20287;-79
2022/01/21 11:29:47;;;;;;;9.52;2.25;;;1.40;99.90;;;;;;5019199;28;20232;-80
2022/01/21 11:32:16;;;;;;;6.30;2.25;;;1.40;1.00;;;;;;5019446;28;20224;-81
2022/01/21 11:34:43;;;;;;;4.93;3.13;;;1.10;1.00;;;;;;5017403;28;20234;-81
2022/01/21 11:37:10;;;;;;;2.70;2.05;;;1.40;1.00;;;;;;5018424;28;20291;-81
2022/01/21 11:39:38;;;;;;;7.03;2.75;;;1.40;39.70;;;;;;5023251;28;20703;-79
2022/01/21 11:42:07;;;;;;;10.00;2.92;;;1.50;99.90;;;;;;5022785;28;20258;-81
2022/01/21 11:44:37;;;;;;;11.20;2.33;;;1.50;1.00;;;;;;5020960;28;20749;-81
2022/01/21 11:47:17;;;;;;;2.65;1.75;;;1.50;99.90;;;;;;5020283;28;20259;-79
2022/01/21 11:49:55;;;;;;;8.98;3.55;;;1.50;99.90;;;;;;5018324;28;20232;-79
2022/01/21 11:52:22;;;;;;;9.48;2.88;;;1.60;1.00;;;;;;5024244;28;20242;-82
2022/01/21 11:54:49;;;;;;;4.15;2.30;;;1.60;1.00;;;;;;5034110;28;20559;-80
2022/01/21 11:57:26;;;;;;;5.30;2.67;;;1.60;99.90;;;;;;5034394;28;20204;-80
2022/01/21 11:59:59;;;;;;;6.78;2.10;;;1.70;99.90;;;;;;5021046;28;20192;-82
2022/01/21 12:02:29;;;;;;;6.35;2.92;;;1.70;99.90;;;;;;5022644;28;20184;-82
2022/01/21 12:04:57;;;;;;;3.42;2.60;;;1.70;99.90;;;;;;5023895;28;20192;-81
2022/01/21 12:07:54;;;;;;;4.45;2.47;;;1.80;99.90;;;;;;5028862;28;20209;-82
2022/01/21 12:10:33;;;;;;;5.57;2.75;;;1.80;99.90;;;;;;5036462;28;20172;-79
2022/01/21 12:13:05;;;;;;;7.80;3.58;;;1.80;99.90;;;;;;5036184;28;20228;-81
2022/01/21 12:19:10;;;;;;;7.45;2.75;;;1.80;99.90;;;;;;5026380;28;20216;-81
2022/01/21 12:21:41;;;;;;;11.93;2.65;;;1.80;99.90;;;;;;5020941;28;20558;-83
2022/01/21 12:24:08;;;;;;;4.95;3.63;;;1.90;99.90;;;;;;5018314;28;20204;-78
2022/01/21 12:26:35;;;;;;;7.80;3.45;;;1.90;99.90;;;;;;5017152;28;20295;-78
2022/01/21 12:29:23;;;;;;;4.15;2.40;;;1.90;99.90;;;;;;5037690;22;20290;-79
2022/01/21 12:31:55;;;;;;;5.25;2.45;;;1.90;99.90;;;;;;5030815;28;20211;-79
2022/01/21 12:34:23;;;;;;;5.00;2.30;;;1.70;99.90;;;;;;5030747;28;20228;-79
2022/01/21 12:36:52;;;;;;;3.45;2.67;;;1.80;99.90;;;;;;5031763;28;20659;-80
2022/01/21 12:39:40;;;;;;;6.43;2.50;;;1.90;99.90;;;;;;5038592;28;20208;-79
2022/01/21 12:42:35;;;;;;;2.88;2.45;;;2.10;99.90;;;;;;5040730;28;20211;-81
2022/01/21 12:45:23;;;;;;;4.75;2.08;;;1.80;99.90;;;;;;5040819;28;20194;-81
2022/01/21 12:47:50;;;;;;;4.10;2.53;;;2.40;99.90;;;;;;5035185;28;20189;-79
2022/01/21 12:50:28;;;;;;;6.03;2.95;;;2.20;99.90;;;;;;5023426;28;20227;-79
2022/01/21 12:53:07;;;;;;;4.97;2.60;;;2.10;99.90;;;;;;5026157;28;20578;-79
2022/01/21 12:58:21;;;;;;;6.07;2.00;;;2.10;11.90;;;;;;5027231;28;20273;-82
2022/01/21 13:00:48;;;;;;;3.53;2.33;;;2.20;37.40;;;;;;5026857;28;20204;-80
2022/01/21 13:03:22;;;;;;;3.83;2.08;;;2.20;90.20;;;;;;5027315;28;20721;-80
2022/01/21 13:06:02;;;;;;;9.50;2.70;;;2.20;99.90;;;;;;5025024;28;20270;-80
2022/01/21 13:08:36;;;;;;;9.07;2.45;;;2.20;99.90;;;;;;5026780;28;20236;-79
2022/01/21 13:11:16;;;;;;;4.07;2.55;;;2.20;99.90;;;;;;5026845;28;20189;-80
2022/01/21 13:13:58;;;;;;;5.18;1.88;;;2.20;97.10;;;;;;5027687;28;20212;-82
2022/01/21 13:16:27;;;;;;;2.67;1.83;;;2.40;99.90;;;;;;5028281;28;20239;-82
2022/01/21 13:19:00;;;;;;;5.50;2.22;;;2.20;99.90;;;;;;5029528;28;20247;-80
2022/01/21 13:21:28;;;;;;;4.45;1.85;;;2.20;99.90;;;;;;5027943;28;20252;-81
2022/01/21 13:23:57;;;;;;;7.35;2.08;;;2.00;1.00;;;;;;5028368;28;20204;-79
2022/01/21 13:26:26;;;;;;;7.00;2.85;;;2.10;99.90;;;;;;5026247;28;20579;-79
2022/01/21 13:28:58;;;;;;;2.25;1.85;;;2.10;99.90;;;;;;5026443;28;20279;-81
2022/01/21 13:31:25;;;;;;;6.50;2.15;;;2.10;99.90;;;;;;5028611;28;20188;-82
2022/01/21 13:33:52;;;;;;;4.40;2.63;;;2.20;33.30;;;;;;5030155;28;20251;-80
2022/01/21 13:36:49;;;;;;;5.30;2.25;;;2.10;99.90;;;;;;5031349;28;20209;-80
2022/01/21 13:39:18;;;;;;;4.63;1.67;;;2.10;54.10;;;;;;4985950;28;20637;-79
2022/01/21 13:42:07;;;;;;;3.88;2.00;;;2.10;99.90;;;;;;5035864;28;20192;-81
2022/01/21 13:44:37;;;;;;;5.72;1.77;;;2.10;99.90;;;;;;5034225;28;20236;-82
2022/01/21 13:47:08;;;;;;;4.40;2.33;;;2.10;99.90;;;;;;5029200;28;20189;-83
2022/01/21 13:49:34;;;;;;;4.55;2.83;;;2.10;99.90;;;;;;5033861;28;20599;-80
2022/01/21 13:52:06;;;;;;;3.97;1.70;;;2.10;99.90;;;;;;5038699;28;20192;-80
2022/01/21 13:54:35;;;;;;;4.30;2.72;;;2.10;99.90;;;;;;5031843;28;20188;-79
2022/01/21 13:57:04;;;;;;;4.28;2.70;;;2.10;99.90;;;;;;5031762;28;20193;-82
2022/01/21 13:59:31;;;;;;;3.97;2.25;;;2.00;1.00;;;;;;5034568;28;20224;-79